Time;durP1;ratioP1;P1;durP2;ratioP2;P2;SDS_P1;SDS_P2;PMS_P1;PMS_P2;Temp;Humidity;BMP_temperature;BMP_pressure;BME280_temperature;BME280_humidity;BME280_pressure;Samples;Min_cycle;Max_cycle;Signal;HPM_P1;HPM_P2
2021/09/01 00:00:19;;;;;;;5.40;3.33;;;22.50;66.80;;;;;;6174527;28;80436;-62
2021/09/01 00:03:20;;;;;;;2.92;2.53;;;22.50;66.80;;;;;;6156415;28;80874;-62
2021/09/01 00:06:20;;;;;;;3.40;2.83;;;22.50;66.80;;;;;;6165422;28;81155;-63
2021/09/01 00:09:20;;;;;;;4.90;3.00;;;22.50;66.80;;;;;;6165763;28;80361;-63
2021/09/01 00:12:21;;;;;;;4.45;2.92;;;22.50;66.70;;;;;;6154634;28;80740;-63
2021/09/01 00:15:22;;;;;;;3.88;2.90;;;22.50;66.80;;;;;;6164588;28;80542;-62
2021/09/01 00:18:22;;;;;;;3.40;2.60;;;22.50;66.70;;;;;;6162394;28;80545;-63
2021/09/01 00:21:22;;;;;;;3.40;3.00;;;22.50;66.70;;;;;;6165458;28;82680;-62
2021/09/01 00:24:23;;;;;;;3.38;2.72;;;22.40;66.60;;;;;;6167431;28;80482;-62
2021/09/01 00:27:23;;;;;;;3.35;2.80;;;22.40;66.50;;;;;;6159611;28;83150;-63
2021/09/01 00:30:24;;;;;;;9.25;3.13;;;22.50;66.80;;;;;;6169822;28;81274;-62
2021/09/01 00:33:24;;;;;;;4.30;2.35;;;22.50;66.50;;;;;;6156947;28;83762;-63
2021/09/01 00:36:25;;;;;;;2.92;2.60;;;22.50;66.60;;;;;;6161360;28;80728;-62
2021/09/01 00:39:25;;;;;;;4.10;2.85;;;22.40;66.40;;;;;;6148114;28;80619;-62
2021/09/01 00:42:26;;;;;;;3.20;2.25;;;22.50;66.40;;;;;;6163859;28;80941;-62
2021/09/01 00:45:26;;;;;;;2.72;2.50;;;22.50;66.50;;;;;;6165561;28;80577;-61
2021/09/01 00:48:27;;;;;;;3.75;2.65;;;22.50;66.40;;;;;;6161078;28;81791;-62
2021/09/01 00:51:27;;;;;;;3.00;2.70;;;22.50;67.00;;;;;;6159816;28;80847;-62
2021/09/01 00:54:28;;;;;;;3.10;2.47;;;22.40;66.30;;;;;;6154803;28;80424;-61
2021/09/01 00:57:28;;;;;;;3.72;2.50;;;22.50;66.40;;;;;;6164144;28;81138;-62
2021/09/01 01:03:52;;;;;;;3.45;1.90;;;22.50;66.30;;;;;;6141365;28;80622;-61
2021/09/01 01:06:53;;;;;;;3.05;2.50;;;22.50;66.40;;;;;;6162835;28;80305;-62
2021/09/01 01:09:54;;;;;;;4.13;2.95;;;22.40;66.10;;;;;;6162721;28;80291;-62
2021/09/01 01:12:54;;;;;;;3.50;2.55;;;22.40;66.20;;;;;;6174254;28;80026;-62
2021/09/01 01:15:55;;;;;;;3.35;2.40;;;22.40;66.20;;;;;;6156616;28;80890;-62
2021/09/01 01:18:55;;;;;;;2.47;2.28;;;22.40;66.10;;;;;;6153687;28;81880;-62
2021/09/01 01:21:56;;;;;;;3.53;2.70;;;22.40;66.10;;;;;;6157170;28;81496;-63
2021/09/01 01:24:56;;;;;;;2.35;1.90;;;22.40;66.20;;;;;;6158731;28;80503;-62
2021/09/01 01:27:57;;;;;;;2.90;2.20;;;22.40;66.30;;;;;;6154664;28;81900;-63
2021/09/01 01:30:57;;;;;;;3.38;2.38;;;22.40;66.30;;;;;;6169759;28;81413;-62
2021/09/01 01:33:58;;;;;;;3.45;2.55;;;22.40;66.10;;;;;;6160559;28;80544;-62
2021/09/01 01:36:58;;;;;;;3.28;2.60;;;22.40;66.10;;;;;;6171680;28;80477;-62
2021/09/01 01:39:59;;;;;;;4.15;2.28;;;22.40;66.10;;;;;;6156777;28;80284;-62
2021/09/01 01:42:59;;;;;;;2.40;2.20;;;22.40;66.00;;;;;;6165541;28;80429;-62
2021/09/01 01:46:00;;;;;;;2.10;1.90;;;22.40;66.10;;;;;;6159495;28;81070;-62
2021/09/01 01:49:00;;;;;;;3.20;2.20;;;22.40;66.00;;;;;;6165136;28;82267;-62
2021/09/01 01:52:01;;;;;;;2.58;2.15;;;22.40;66.00;;;;;;6159932;28;82330;-62
2021/09/01 01:55:01;;;;;;;2.58;2.30;;;22.40;65.90;;;;;;6162737;28;80467;-62
2021/09/01 01:58:01;;;;;;;2.67;2.05;;;22.40;66.00;;;;;;6160465;28;80430;-62
2021/09/01 02:01:02;;;;;;;3.25;2.20;;;22.40;65.90;;;;;;6166773;28;81902;-62
2021/09/01 02:04:02;;;;;;;1.80;1.70;;;22.40;66.00;;;;;;6151645;28;81748;-62
2021/09/01 02:07:03;;;;;;;3.13;2.38;;;22.40;66.00;;;;;;6159237;28;81040;-62
2021/09/01 02:10:03;;;;;;;3.13;2.03;;;22.40;65.90;;;;;;6156872;28;80321;-62
2021/09/01 02:13:04;;;;;;;2.30;1.90;;;22.40;65.90;;;;;;6158345;28;80477;-62
2021/09/01 02:16:04;;;;;;;2.10;1.77;;;22.40;66.00;;;;;;6158988;28;80668;-62
2021/09/01 02:19:05;;;;;;;2.05;1.70;;;22.40;66.00;;;;;;6157895;28;80795;-63
2021/09/01 02:22:05;;;;;;;2.47;1.85;;;22.40;65.80;;;;;;6161499;28;80765;-62
2021/09/01 02:25:06;;;;;;;4.38;2.03;;;22.40;65.90;;;;;;6160848;28;80964;-62
2021/09/01 02:28:06;;;;;;;3.22;2.35;;;22.40;65.90;;;;;;6159863;28;80467;-62
2021/09/01 02:31:07;;;;;;;2.00;1.80;;;22.40;65.70;;;;;;6148043;28;81725;-62
2021/09/01 02:34:07;;;;;;;1.73;1.60;;;22.40;65.70;;;;;;6159649;28;80434;-62
2021/09/01 02:37:08;;;;;;;1.85;1.75;;;22.40;65.60;;;;;;6161394;28;80451;-62
2021/09/01 02:40:08;;;;;;;1.77;1.67;;;22.40;65.60;;;;;;6163102;28;80527;-62
2021/09/01 02:43:09;;;;;;;1.52;1.42;;;22.40;65.70;;;;;;6157534;28;81772;-63
2021/09/01 02:46:09;;;;;;;1.70;1.55;;;22.40;65.50;;;;;;6165537;28;80871;-63
2021/09/01 02:49:09;;;;;;;3.10;1.95;;;22.40;65.60;;;;;;6172090;28;80819;-63
2021/09/01 02:52:10;;;;;;;3.20;2.05;;;22.40;65.50;;;;;;6157565;28;80276;-63
2021/09/01 02:55:10;;;;;;;3.15;1.90;;;22.40;65.50;;;;;;6161862;28;80264;-63
2021/09/01 02:58:11;;;;;;;3.72;1.67;;;22.40;65.50;;;;;;6164540;28;84592;-63
2021/09/01 03:01:11;;;;;;;2.35;1.70;;;22.40;65.40;;;;;;6167030;28;80346;-63
2021/09/01 03:04:12;;;;;;;3.20;1.70;;;22.40;65.30;;;;;;6160504;28;80633;-63
2021/09/01 03:07:12;;;;;;;1.60;1.33;;;22.40;65.20;;;;;;6168095;28;80541;-63
2021/09/01 03:10:13;;;;;;;1.58;1.48;;;22.40;65.30;;;;;;6163454;28;81321;-63
2021/09/01 03:13:14;;;;;;;2.65;1.92;;;22.40;65.30;;;;;;6173792;28;80331;-63
2021/09/01 03:16:14;;;;;;;1.70;1.60;;;22.40;65.00;;;;;;6156892;28;83112;-63
2021/09/01 03:19:14;;;;;;;1.83;1.40;;;22.40;65.30;;;;;;6164352;28;80458;-62
2021/09/01 03:22:15;;;;;;;2.35;2.00;;;22.40;65.30;;;;;;6164211;28;80467;-62
2021/09/01 03:25:15;;;;;;;3.65;1.50;;;22.40;65.30;;;;;;6157465;28;80391;-62
2021/09/01 03:28:16;;;;;;;1.75;1.65;;;22.40;65.10;;;;;;6168764;28;80548;-62
2021/09/01 03:31:16;;;;;;;2.10;1.48;;;22.40;65.30;;;;;;6160195;28;80283;-63
2021/09/01 03:34:17;;;;;;;1.52;1.42;;;22.40;65.30;;;;;;6164765;28;80992;-63
2021/09/01 03:37:17;;;;;;;1.90;1.73;;;22.40;65.00;;;;;;6161364;28;80276;-62
2021/09/01 03:40:18;;;;;;;1.75;1.55;;;22.40;65.00;;;;;;6165094;28;80815;-62
2021/09/01 03:43:18;;;;;;;1.90;1.60;;;22.40;65.00;;;;;;6157822;28;81429;-62
2021/09/01 03:46:19;;;;;;;2.50;1.50;;;22.40;65.10;;;;;;6167256;28;80353;-63
2021/09/01 03:49:19;;;;;;;1.85;1.40;;;22.30;65.00;;;;;;6162571;28;82652;-62
2021/09/01 03:52:20;;;;;;;1.90;1.67;;;22.30;65.00;;;;;;6156536;28;81093;-63
2021/09/01 03:55:20;;;;;;;1.85;1.60;;;22.30;64.90;;;;;;6160049;28;82167;-66
2021/09/01 03:58:21;;;;;;;1.40;1.30;;;22.30;65.00;;;;;;6163086;28;80295;-63
2021/09/01 04:01:21;;;;;;;1.88;1.50;;;22.30;65.00;;;;;;6170228;28;80381;-63
2021/09/01 04:04:23;;;;;;;1.70;1.52;;;22.30;65.10;;;;;;6161442;28;80347;-63
2021/09/01 04:07:23;;;;;;;2.65;1.50;;;22.30;65.20;;;;;;6160108;28;80670;-63
2021/09/01 04:10:24;;;;;;;2.45;1.50;;;22.40;65.00;;;;;;6158801;28;80364;-64
2021/09/01 04:13:24;;;;;;;5.38;1.50;;;22.40;65.00;;;;;;6169677;28;80445;-63
2021/09/01 04:16:25;;;;;;;2.10;1.60;;;22.40;65.20;;;;;;6168152;28;80660;-63
2021/09/01 04:19:25;;;;;;;1.58;1.45;;;22.40;65.10;;;;;;6166086;28;80770;-67
2021/09/01 04:22:25;;;;;;;1.55;1.30;;;22.30;65.10;;;;;;6162104;28;80448;-60
2021/09/01 04:25:26;;;;;;;1.48;1.33;;;22.30;65.10;;;;;;6164044;28;81456;-62
2021/09/01 04:28:26;;;;;;;1.52;1.35;;;22.30;65.30;;;;;;6172561;28;81682;-63
2021/09/01 04:31:27;;;;;;;3.05;2.10;;;22.30;65.50;;;;;;6165718;28;80718;-64
2021/09/01 04:34:27;;;;;;;1.40;1.30;;;22.30;65.50;;;;;;6166035;28;81678;-64
2021/09/01 04:37:28;;;;;;;3.20;1.50;;;22.30;65.80;;;;;;6156163;28;80441;-63
2021/09/01 04:40:28;;;;;;;1.75;1.48;;;22.30;65.90;;;;;;6170414;28;81708;-63
2021/09/01 04:43:29;;;;;;;2.75;1.83;;;22.30;65.60;;;;;;6155399;28;80320;-64
2021/09/01 04:46:29;;;;;;;4.10;1.20;;;22.40;65.80;;;;;;6156058;28;80393;-64
2021/09/01 04:49:30;;;;;;;1.75;1.60;;;22.40;65.70;;;;;;6163370;28;81643;-63
2021/09/01 04:52:30;;;;;;;2.03;1.48;;;22.40;66.60;;;;;;6174304;28;87149;-63
2021/09/01 04:55:31;;;;;;;1.73;1.30;;;22.30;66.10;;;;;;6175954;28;80326;-65
2021/09/01 04:58:31;;;;;;;2.58;1.58;;;22.30;66.40;;;;;;6173312;28;81851;-64
2021/09/01 05:01:32;;;;;;;2.20;1.65;;;22.40;66.30;;;;;;6158549;28;81352;-65
2021/09/01 05:04:32;;;;;;;1.75;1.30;;;22.40;66.20;;;;;;6175191;28;80368;-64
2021/09/01 05:07:33;;;;;;;3.72;1.60;;;22.40;66.60;;;;;;6165411;28;80827;-63
2021/09/01 05:10:33;;;;;;;2.67;1.60;;;22.40;66.90;;;;;;6166328;28;82391;-64
2021/09/01 05:13:34;;;;;;;6.72;1.52;;;22.30;67.10;;;;;;6156868;28;80930;-64
2021/09/01 05:16:34;;;;;;;1.40;1.30;;;22.30;67.10;;;;;;6164901;28;82305;-64
2021/09/01 05:19:35;;;;;;;2.08;1.60;;;22.40;67.50;;;;;;6168617;28;81722;-63
2021/09/01 05:22:35;;;;;;;1.75;1.50;;;22.40;67.50;;;;;;6173609;28;81403;-65
2021/09/01 05:25:36;;;;;;;2.05;1.27;;;22.40;67.80;;;;;;6170951;28;81584;-64
2021/09/01 05:28:36;;;;;;;1.58;1.38;;;22.40;67.30;;;;;;6164615;28;81301;-64
2021/09/01 05:31:37;;;;;;;4.95;1.70;;;22.40;66.60;;;;;;6167851;28;81477;-66
2021/09/01 05:34:37;;;;;;;2.40;1.55;;;22.40;67.60;;;;;;6158085;28;80323;-64
2021/09/01 05:37:38;;;;;;;2.78;1.55;;;22.40;67.00;;;;;;6163663;28;82751;-65
2021/09/01 05:40:38;;;;;;;3.65;1.95;;;22.40;66.60;;;;;;6149827;28;81031;-63
2021/09/01 05:43:39;;;;;;;2.58;1.60;;;22.40;65.30;;;;;;6158104;28;81389;-63
2021/09/01 05:46:39;;;;;;;2.08;1.88;;;22.30;65.20;;;;;;6173785;28;80892;-62
2021/09/01 05:49:40;;;;;;;3.15;2.10;;;22.40;64.60;;;;;;6155022;28;80511;-63
2021/09/01 05:52:40;;;;;;;3.65;1.85;;;22.30;64.30;;;;;;6157362;28;81519;-61
2021/09/01 05:55:41;;;;;;;3.55;1.70;;;22.30;64.10;;;;;;6168022;28;80756;-62
2021/09/01 05:58:42;;;;;;;4.68;2.30;;;22.30;63.90;;;;;;6162062;28;80423;-62
2021/09/01 06:01:42;;;;;;;4.65;2.40;;;22.30;63.90;;;;;;6163156;28;81771;-61
2021/09/01 06:04:44;;;;;;;4.15;3.10;;;22.30;63.90;;;;;;6155916;28;80420;-62
2021/09/01 06:07:44;;;;;;;4.50;2.60;;;22.30;63.20;;;;;;6162679;28;80885;-62
2021/09/01 06:10:45;;;;;;;3.05;2.17;;;22.20;62.40;;;;;;6158661;28;80625;-63
2021/09/01 06:13:45;;;;;;;2.30;2.10;;;22.20;62.60;;;;;;6160380;28;80711;-62
2021/09/01 06:16:46;;;;;;;8.23;2.60;;;22.20;62.20;;;;;;6162771;28;80452;-64
2021/09/01 06:19:46;;;;;;;3.72;2.75;;;22.10;61.50;;;;;;6159272;28;80859;-65
2021/09/01 06:22:47;;;;;;;3.35;2.55;;;22.10;61.20;;;;;;6159771;28;81204;-65
2021/09/01 06:25:47;;;;;;;3.88;2.38;;;22.10;61.10;;;;;;6154348;28;80594;-66
2021/09/01 06:28:48;;;;;;;4.15;2.38;;;22.00;61.10;;;;;;6161771;28;80621;-67
2021/09/01 06:31:48;;;;;;;5.03;3.40;;;22.00;61.30;;;;;;6158482;28;80841;-66
2021/09/01 06:34:49;;;;;;;3.85;3.17;;;22.00;61.00;;;;;;6165006;28;80402;-63
2021/09/01 06:37:49;;;;;;;5.65;3.30;;;22.00;60.90;;;;;;6167109;28;81054;-64
2021/09/01 06:40:50;;;;;;;3.72;2.83;;;21.90;61.00;;;;;;6177163;28;83408;-63
2021/09/01 06:43:50;;;;;;;4.65;2.95;;;21.90;61.20;;;;;;6163597;28;87901;-67
2021/09/01 06:46:51;;;;;;;6.68;3.00;;;21.90;61.40;;;;;;6164880;28;80813;-65
2021/09/01 06:49:51;;;;;;;5.53;3.22;;;21.90;61.20;;;;;;6171217;28;80393;-65
2021/09/01 06:52:52;;;;;;;4.15;2.80;;;22.00;61.70;;;;;;6166914;28;82250;-64
2021/09/01 06:55:52;;;;;;;2.97;2.67;;;21.90;61.50;;;;;;6158121;28;81400;-63
2021/09/01 06:58:53;;;;;;;2.50;2.25;;;21.90;61.60;;;;;;6158669;28;80988;-62
2021/09/01 07:01:53;;;;;;;4.53;2.60;;;22.00;61.70;;;;;;6153198;28;80891;-63
2021/09/01 07:04:54;;;;;;;3.13;2.72;;;22.00;61.60;;;;;;6156328;28;80971;-63
2021/09/01 07:07:54;;;;;;;3.38;2.20;;;22.00;61.10;;;;;;6157489;28;81654;-63
2021/09/01 07:10:55;;;;;;;5.93;3.65;;;22.00;61.00;;;;;;6164395;28;80320;-62
2021/09/01 07:13:55;;;;;;;3.92;3.25;;;22.00;61.20;;;;;;6159150;28;81748;-62
2021/09/01 07:16:56;;;;;;;4.32;2.70;;;21.90;61.20;;;;;;6159651;28;80508;-63
2021/09/01 07:19:56;;;;;;;3.55;2.78;;;22.00;61.50;;;;;;6157296;28;81887;-61
2021/09/01 07:22:57;;;;;;;3.63;2.47;;;21.90;61.40;;;;;;6152089;28;80473;-62
2021/09/01 07:25:58;;;;;;;3.33;2.50;;;21.90;61.40;;;;;;6192105;28;82065;-61
2021/09/01 07:28:58;;;;;;;4.43;2.05;;;21.90;61.40;;;;;;6164579;28;81479;-61
2021/09/01 07:31:59;;;;;;;3.22;2.35;;;21.90;61.50;;;;;;6165716;28;80608;-61
2021/09/01 07:34:59;;;;;;;2.85;1.98;;;21.90;61.40;;;;;;6162318;28;80843;-62
2021/09/01 07:38:00;;;;;;;3.75;2.28;;;22.00;61.10;;;;;;6161698;28;80683;-62
2021/09/01 07:41:00;;;;;;;4.07;2.30;;;22.00;61.20;;;;;;6153326;28;80748;-62
2021/09/01 07:44:01;;;;;;;2.78;1.70;;;22.00;61.20;;;;;;6160114;28;80820;-62
2021/09/01 07:47:01;;;;;;;4.78;2.15;;;21.90;61.40;;;;;;6162233;28;80505;-63
2021/09/01 07:50:02;;;;;;;3.00;2.30;;;21.90;61.20;;;;;;6172834;28;80415;-63
2021/09/01 07:53:02;;;;;;;4.10;2.38;;;22.00;60.90;;;;;;6161366;28;81632;-63
2021/09/01 07:56:03;;;;;;;2.75;1.90;;;22.00;61.00;;;;;;6158358;28;80457;-64
2021/09/01 07:59:03;;;;;;;3.38;2.00;;;22.00;61.20;;;;;;6160395;28;81579;-63
2021/09/01 08:02:04;;;;;;;2.60;2.00;;;22.00;61.20;;;;;;6158439;28;81708;-63
2021/09/01 08:05:04;;;;;;;3.03;1.83;;;22.00;61.50;;;;;;6157390;28;83235;-61
2021/09/01 08:08:05;;;;;;;2.58;1.95;;;22.00;61.50;;;;;;6157986;28;83500;-62
2021/09/01 08:11:05;;;;;;;2.28;1.85;;;22.00;61.70;;;;;;6172773;28;81292;-63
2021/09/01 08:14:06;;;;;;;2.00;1.80;;;22.00;61.60;;;;;;6159116;28;83258;-63
2021/09/01 08:17:06;;;;;;;2.20;1.95;;;22.00;61.80;;;;;;6161898;28;80092;-63
2021/09/01 08:20:07;;;;;;;3.33;1.80;;;22.00;62.20;;;;;;6160057;28;81329;-63
2021/09/01 08:23:07;;;;;;;2.20;1.80;;;22.00;62.40;;;;;;6163386;28;80688;-63
2021/09/01 08:26:08;;;;;;;3.40;2.15;;;22.10;62.40;;;;;;6175607;28;80839;-62
2021/09/01 08:29:08;;;;;;;3.17;2.00;;;22.10;62.20;;;;;;6166332;28;80435;-63
2021/09/01 08:32:09;;;;;;;5.32;2.08;;;22.10;62.00;;;;;;6160087;28;83129;-62
2021/09/01 08:35:09;;;;;;;3.80;1.90;;;22.10;61.90;;;;;;6165891;28;81932;-63
2021/09/01 08:38:10;;;;;;;2.42;1.90;;;22.10;62.00;;;;;;6164735;28;80391;-63
2021/09/01 08:41:10;;;;;;;2.65;2.00;;;22.10;61.80;;;;;;6161569;28;80528;-63
2021/09/01 08:44:11;;;;;;;4.10;1.80;;;22.10;61.80;;;;;;6171666;28;81280;-63
2021/09/01 08:47:11;;;;;;;2.00;1.77;;;22.10;61.50;;;;;;6161570;28;80441;-62
2021/09/01 08:50:12;;;;;;;3.40;1.92;;;22.20;62.30;;;;;;6162773;28;80832;-62
2021/09/01 08:53:13;;;;;;;2.33;1.90;;;22.20;62.50;;;;;;6165545;28;81466;-62
2021/09/01 08:56:13;;;;;;;3.22;2.13;;;22.20;62.30;;;;;;6162021;28;80745;-63
2021/09/01 08:59:13;;;;;;;3.17;2.00;;;22.20;62.40;;;;;;6164502;28;81717;-62
2021/09/01 09:02:14;;;;;;;2.53;1.52;;;22.20;62.60;;;;;;6169284;28;80498;-62
2021/09/01 09:05:15;;;;;;;2.53;1.90;;;22.20;62.50;;;;;;6162236;28;80424;-62
2021/09/01 09:08:15;;;;;;;2.53;1.90;;;22.20;62.60;;;;;;6160711;28;81558;-62
2021/09/01 09:11:16;;;;;;;2.83;1.88;;;22.20;62.60;;;;;;6164773;28;81875;-63
2021/09/01 09:14:16;;;;;;;2.75;1.80;;;22.20;62.60;;;;;;6165246;28;80768;-63
2021/09/01 09:17:17;;;;;;;2.55;1.90;;;22.20;62.70;;;;;;6162452;28;80419;-65
2021/09/01 09:20:17;;;;;;;2.63;2.08;;;22.20;62.70;;;;;;6170479;28;80742;-64
2021/09/01 09:23:18;;;;;;;2.60;1.80;;;22.10;62.80;;;;;;6156598;28;80716;-61
2021/09/01 09:26:18;;;;;;;3.20;2.05;;;22.20;62.80;;;;;;6150949;28;81353;-61
2021/09/01 09:29:19;;;;;;;2.03;1.80;;;22.20;62.90;;;;;;6159332;28;80434;-62
2021/09/01 09:32:20;;;;;;;5.68;2.40;;;22.20;63.10;;;;;;6164826;28;80754;-63
2021/09/01 09:35:20;;;;;;;3.10;2.53;;;22.20;63.00;;;;;;6156013;28;81453;-63
2021/09/01 09:38:21;;;;;;;2.80;1.88;;;22.20;63.10;;;;;;6157690;28;80534;-63
2021/09/01 09:41:22;;;;;;;3.10;2.20;;;22.20;63.00;;;;;;6153973;28;81331;-63
2021/09/01 09:44:23;;;;;;;2.58;2.00;;;22.20;63.00;;;;;;6159641;28;80300;-63
2021/09/01 09:47:24;;;;;;;3.40;2.67;;;22.10;63.00;;;;;;6153381;28;80809;-62
2021/09/01 09:50:24;;;;;;;4.68;2.97;;;22.20;63.00;;;;;;6156972;28;80668;-61
2021/09/01 09:53:25;;;;;;;3.70;2.70;;;22.20;63.00;;;;;;6165749;28;80328;-62
2021/09/01 09:56:25;;;;;;;6.43;3.00;;;22.20;63.00;;;;;;6161314;28;81788;-62
2021/09/01 09:59:26;;;;;;;3.08;2.13;;;22.20;62.90;;;;;;6168492;28;80539;-62
2021/09/01 10:02:26;;;;;;;3.45;2.35;;;22.20;63.30;;;;;;6163790;28;80623;-63
2021/09/01 10:05:27;;;;;;;3.63;2.60;;;22.20;62.90;;;;;;6163377;28;81386;-62
2021/09/01 10:08:28;;;;;;;4.45;3.20;;;22.20;62.80;;;;;;6155044;28;81194;-61
2021/09/01 10:11:28;;;;;;;3.55;2.80;;;22.20;63.00;;;;;;6152125;28;80447;-63
2021/09/01 10:14:29;;;;;;;4.75;3.20;;;22.20;62.90;;;;;;6170383;28;80415;-64
2021/09/01 10:17:29;;;;;;;4.72;3.33;;;22.20;62.90;;;;;;6157343;28;81429;-62
2021/09/01 10:20:30;;;;;;;4.85;3.20;;;22.20;63.00;;;;;;6163340;28;80343;-63
2021/09/01 10:23:30;;;;;;;4.30;3.03;;;22.20;63.00;;;;;;6163959;28;80511;-62
2021/09/01 10:26:31;;;;;;;5.30;3.83;;;22.20;63.20;;;;;;6161588;28;80482;-62
2021/09/01 10:29:31;;;;;;;5.10;3.42;;;22.20;63.40;;;;;;6158750;28;81541;-63
2021/09/01 10:32:32;;;;;;;5.40;3.42;;;22.20;63.40;;;;;;6160614;28;80289;-62
2021/09/01 10:35:32;;;;;;;8.82;4.00;;;22.20;63.50;;;;;;6169119;28;82231;-62
2021/09/01 10:38:33;;;;;;;7.20;3.88;;;22.30;63.40;;;;;;6153254;28;81365;-61
2021/09/01 10:41:33;;;;;;;5.50;4.10;;;22.30;63.30;;;;;;6166456;28;80995;-62
2021/09/01 10:44:34;;;;;;;6.82;4.40;;;22.20;63.20;;;;;;6165931;28;80193;-62
2021/09/01 10:47:34;;;;;;;6.22;4.90;;;22.20;63.30;;;;;;6152726;28;80667;-61
2021/09/01 10:50:35;;;;;;;6.05;4.80;;;22.30;64.10;;;;;;6156753;28;80386;-60
2021/09/01 10:53:35;;;;;;;8.65;4.60;;;22.30;63.40;;;;;;6159244;28;80487;-60
2021/09/01 10:56:36;;;;;;;7.15;4.68;;;22.30;63.50;;;;;;6168695;28;80382;-61
2021/09/01 10:59:36;;;;;;;7.03;5.00;;;22.20;62.70;;;;;;6165796;28;80977;-61
2021/09/01 11:02:36;;;;;;;9.25;5.07;;;22.20;63.00;;;;;;6163280;28;80253;-61
2021/09/01 11:05:37;;;;;;;8.38;5.00;;;22.20;63.00;;;;;;6163643;28;80602;-61
2021/09/01 11:08:37;;;;;;;12.90;6.57;;;22.20;63.30;;;;;;6160888;28;80553;-61
2021/09/01 11:11:38;;;;;;;8.77;5.68;;;22.20;63.50;;;;;;6165902;28;81244;-61
2021/09/01 11:14:39;;;;;;;11.77;6.60;;;22.20;63.40;;;;;;6171054;28;80876;-61
2021/09/01 11:17:39;;;;;;;15.65;6.90;;;22.30;63.30;;;;;;6172260;28;80230;-61
2021/09/01 11:20:39;;;;;;;13.13;7.07;;;22.30;63.20;;;;;;6161004;28;80454;-62
2021/09/01 11:23:40;;;;;;;11.90;7.00;;;22.20;63.20;;;;;;6151663;28;80537;-62
2021/09/01 11:26:41;;;;;;;10.70;7.05;;;22.20;63.30;;;;;;6158977;28;81538;-62
2021/09/01 11:29:41;;;;;;;14.52;8.52;;;22.30;63.40;;;;;;6164076;28;81491;-62
2021/09/01 11:32:42;;;;;;;18.42;8.68;;;22.20;63.60;;;;;;6161047;28;81476;-62
2021/09/01 11:35:42;;;;;;;13.63;7.65;;;22.20;64.20;;;;;;6164386;28;81458;-62
2021/09/01 11:38:42;;;;;;;18.65;7.28;;;22.30;63.70;;;;;;6154424;28;80459;-62
2021/09/01 11:41:47;;;;;;;11.02;7.85;;;22.30;63.60;;;;;;6162142;28;82692;-61
2021/09/01 11:44:47;;;;;;;18.02;8.60;;;22.20;63.50;;;;;;6165845;28;80492;-62
2021/09/01 11:47:48;;;;;;;15.68;8.23;;;22.20;63.40;;;;;;6161479;28;81386;-61
2021/09/01 11:50:49;;;;;;;13.95;7.85;;;22.20;63.40;;;;;;6163928;28;80308;-62
2021/09/01 11:53:49;;;;;;;15.38;7.13;;;22.30;63.50;;;;;;6158163;28;81876;-61
2021/09/01 11:56:50;;;;;;;19.52;8.55;;;22.30;63.40;;;;;;6162009;28;80480;-62
2021/09/01 11:59:50;;;;;;;11.73;7.65;;;22.30;63.30;;;;;;6153654;28;80688;-63
2021/09/01 12:02:51;;;;;;;12.25;7.95;;;22.30;63.20;;;;;;6174853;28;81544;-62
2021/09/01 12:05:51;;;;;;;16.83;8.48;;;22.30;63.30;;;;;;6172537;28;80469;-63
2021/09/01 12:08:52;;;;;;;13.80;7.65;;;22.30;63.10;;;;;;6157309;28;80597;-63
2021/09/01 12:11:53;;;;;;;14.77;8.27;;;22.30;63.10;;;;;;6164714;28;82195;-62
2021/09/01 12:14:53;;;;;;;14.18;8.48;;;22.30;62.80;;;;;;6173736;28;80278;-63
2021/09/01 12:17:54;;;;;;;10.88;7.07;;;22.30;62.70;;;;;;6166701;28;80402;-63
2021/09/01 12:20:55;;;;;;;14.10;7.65;;;22.30;62.70;;;;;;6177187;28;80412;-63
2021/09/01 12:23:55;;;;;;;11.82;7.35;;;22.30;62.80;;;;;;6158089;28;81541;-61
2021/09/01 12:26:56;;;;;;;14.82;7.60;;;22.40;62.70;;;;;;6172571;28;80422;-62
2021/09/01 12:29:56;;;;;;;12.25;7.60;;;22.40;62.70;;;;;;6159791;28;82985;-62
2021/09/01 12:32:57;;;;;;;12.45;7.75;;;22.40;62.70;;;;;;6163470;28;80607;-62
2021/09/01 12:35:57;;;;;;;10.55;7.72;;;22.30;62.60;;;;;;6161507;28;80694;-62
2021/09/01 12:38:58;;;;;;;11.27;7.47;;;22.40;62.40;;;;;;6171657;28;81448;-61
2021/09/01 12:41:58;;;;;;;10.52;7.60;;;22.40;62.40;;;;;;6164110;28;82723;-63
2021/09/01 12:44:59;;;;;;;12.27;7.78;;;22.40;62.30;;;;;;6172457;28;82028;-61
2021/09/01 12:47:59;;;;;;;9.63;7.30;;;22.40;62.20;;;;;;6153168;28;80832;-61
2021/09/01 12:51:01;;;;;;;11.27;8.00;;;22.40;61.90;;;;;;6163492;28;80292;-61
2021/09/01 12:54:02;;;;;;;11.55;7.68;;;22.40;62.10;;;;;;6161486;28;80277;-62
2021/09/01 12:57:03;;;;;;;11.13;7.57;;;22.40;62.00;;;;;;6164817;28;80393;-62
2021/09/01 13:00:03;;;;;;;11.52;7.53;;;22.30;62.30;;;;;;6163373;28;81495;-64
2021/09/01 13:03:04;;;;;;;11.82;7.22;;;22.40;62.20;;;;;;6170493;28;80819;-63
2021/09/01 13:06:04;;;;;;;9.57;7.13;;;22.40;62.10;;;;;;6162447;28;80448;-63
2021/09/01 13:09:05;;;;;;;11.23;6.95;;;22.40;62.00;;;;;;6167935;28;80677;-62
2021/09/01 13:12:05;;;;;;;11.63;7.32;;;22.40;62.00;;;;;;6166919;28;82163;-62
2021/09/01 13:15:06;;;;;;;9.50;7.15;;;22.40;62.20;;;;;;6163083;28;81361;-63
2021/09/01 13:18:06;;;;;;;11.52;7.40;;;22.40;62.00;;;;;;6161797;28;80204;-63
2021/09/01 13:21:07;;;;;;;10.85;6.90;;;22.40;62.10;;;;;;6169339;28;81402;-63
2021/09/01 13:24:07;;;;;;;10.75;7.43;;;22.30;62.50;;;;;;6166399;28;80601;-63
2021/09/01 13:27:08;;;;;;;9.68;6.47;;;22.30;62.30;;;;;;6168364;28;80879;-62
2021/09/01 13:30:08;;;;;;;10.90;7.60;;;22.40;62.30;;;;;;6167338;28;82385;-63
2021/09/01 13:33:09;;;;;;;16.15;7.90;;;22.30;62.60;;;;;;6174619;28;80534;-63
2021/09/01 13:36:09;;;;;;;12.43;6.95;;;22.30;62.80;;;;;;6159267;28;80612;-63
2021/09/01 13:39:10;;;;;;;9.98;7.07;;;22.30;62.80;;;;;;6163725;28;80865;-62
2021/09/01 13:42:10;;;;;;;11.95;7.10;;;22.30;62.50;;;;;;6155707;28;80669;-63
2021/09/01 13:45:11;;;;;;;10.50;6.47;;;22.30;62.90;;;;;;6156202;28;80425;-64
2021/09/01 13:48:12;;;;;;;10.73;6.93;;;22.30;63.20;;;;;;6156906;28;80541;-63
2021/09/01 13:51:12;;;;;;;8.40;6.15;;;22.30;63.30;;;;;;6158868;28;83265;-64
2021/09/01 13:54:13;;;;;;;11.07;6.30;;;22.30;63.40;;;;;;6157275;28;80708;-63
2021/09/01 13:57:15;;;;;;;9.45;6.75;;;22.30;63.50;;;;;;6157704;28;81433;-63
2021/09/01 14:00:16;;;;;;;10.07;6.60;;;22.30;63.50;;;;;;6155248;28;80266;-64
2021/09/01 14:03:16;;;;;;;9.43;6.30;;;22.30;63.50;;;;;;6154994;28;81859;-64
2021/09/01 14:06:17;;;;;;;8.05;5.63;;;22.30;63.60;;;;;;6155878;28;80781;-63
2021/09/01 14:09:17;;;;;;;11.82;6.43;;;22.30;63.10;;;;;;6150493;28;83544;-63
2021/09/01 14:12:18;;;;;;;8.43;6.03;;;22.40;62.70;;;;;;6162713;28;80441;-62
2021/09/01 14:15:18;;;;;;;8.98;6.00;;;22.40;62.20;;;;;;6174517;28;80994;-62
2021/09/01 14:18:19;;;;;;;15.48;6.13;;;22.40;61.90;;;;;;6158474;28;81148;-63
2021/09/01 14:21:19;;;;;;;11.05;6.07;;;22.40;61.60;;;;;;6174200;28;80885;-63
2021/09/01 14:24:21;;;;;;;11.68;6.28;;;22.40;61.60;;;;;;6155952;28;81577;-63
2021/09/01 14:27:21;;;;;;;9.30;5.70;;;22.40;61.40;;;;;;6154838;28;81617;-62
2021/09/01 14:30:22;;;;;;;9.45;6.28;;;22.40;61.00;;;;;;6154188;28;81121;-63
2021/09/01 14:33:22;;;;;;;10.43;5.55;;;22.40;60.60;;;;;;6152626;28;80588;-62
2021/09/01 14:36:23;;;;;;;10.30;5.93;;;22.30;61.20;;;;;;6157837;28;81577;-62
2021/09/01 14:39:23;;;;;;;8.65;5.78;;;22.40;61.50;;;;;;6164565;28;81827;-62
2021/09/01 14:42:24;;;;;;;9.75;6.05;;;22.30;61.50;;;;;;6156164;28;80876;-62
2021/09/01 14:45:24;;;;;;;9.48;5.95;;;22.30;60.90;;;;;;6151623;28;83054;-63
2021/09/01 14:48:25;;;;;;;13.98;6.00;;;22.30;61.10;;;;;;6156442;28;80609;-63
2021/09/01 14:51:25;;;;;;;11.55;6.10;;;22.30;61.30;;;;;;6166013;28;81431;-64
2021/09/01 14:54:26;;;;;;;10.85;6.07;;;22.30;61.50;;;;;;6156097;28;80624;-62
2021/09/01 14:57:26;;;;;;;9.13;6.25;;;22.30;61.40;;;;;;6146793;28;80331;-63
2021/09/01 15:00:27;;;;;;;8.65;6.10;;;22.30;61.50;;;;;;6160101;28;81048;-62
2021/09/01 15:03:27;;;;;;;11.05;6.13;;;22.30;61.60;;;;;;6156937;28;80674;-64
2021/09/01 15:06:28;;;;;;;8.18;5.85;;;22.30;61.50;;;;;;6157734;28;81930;-63
2021/09/01 15:09:28;;;;;;;7.47;5.45;;;22.30;61.60;;;;;;6162798;28;80883;-64
2021/09/01 15:12:29;;;;;;;10.20;5.78;;;22.30;61.40;;;;;;6158161;28;80866;-63
2021/09/01 15:15:29;;;;;;;8.80;5.72;;;22.30;61.50;;;;;;6154129;28;81555;-62
2021/09/01 15:18:30;;;;;;;8.02;5.45;;;22.30;61.50;;;;;;6150308;28;80586;-63
2021/09/01 15:21:30;;;;;;;9.02;6.30;;;22.30;61.50;;;;;;6171777;28;81986;-62
2021/09/01 15:24:30;;;;;;;8.18;6.05;;;22.30;61.30;;;;;;6154502;28;84366;-62
2021/09/01 15:27:31;;;;;;;12.45;6.28;;;22.30;61.40;;;;;;6153678;28;80670;-61
2021/09/01 15:30:31;;;;;;;10.45;5.97;;;22.30;61.60;;;;;;6157806;28;80205;-60
2021/09/01 15:33:32;;;;;;;9.25;5.63;;;22.30;61.70;;;;;;6158487;28;80954;-62
2021/09/01 15:36:32;;;;;;;9.88;5.90;;;22.30;61.70;;;;;;6156466;28;80726;-61
2021/09/01 15:39:33;;;;;;;8.55;5.55;;;22.30;61.80;;;;;;6160992;28;81679;-62